Time;durP1;ratioP1;P1;durP2;ratioP2;P2;SDS_P1;SDS_P2;PMS_P1;PMS_P2;Temp;Humidity;BMP_temperature;BMP_pressure;BME280_temperature;BME280_humidity;BME280_pressure;Samples;Min_cycle;Max_cycle;Signal;HPM_P1;HPM_P2
2022/11/03 00:01:32;;;;;;;162.63;37.42;;;;;;;;;;5075213;28;20041;-52
2022/11/03 00:03:57;;;;;;;216.95;48.67;;;11.70;99.90;;;;;;5068891;28;20389;-52
2022/11/03 00:06:23;;;;;;;208.68;48.00;;;11.80;99.90;;;;;;5075324;28;20086;-53
2022/11/03 00:08:49;;;;;;;184.05;46.92;;;11.90;99.90;;;;;;5071402;28;20044;-52
2022/11/03 00:11:15;;;;;;;212.35;42.75;;;11.80;99.90;;;;;;5062675;28;20036;-53
2022/11/03 00:13:42;;;;;;;179.23;51.17;;;11.80;99.90;;;;;;5071784;28;20377;-52
2022/11/03 00:16:11;;;;;;;141.77;43.08;;;11.80;99.90;;;;;;5076168;28;20063;-53
2022/11/03 00:18:38;;;;;;;211.50;45.60;;;11.80;99.90;;;;;;5075100;28;20472;-53
2022/11/03 00:21:06;;;;;;;169.27;48.67;;;11.80;99.90;;;;;;5075554;28;20039;-53
2022/11/03 00:23:38;;;;;;;124.55;45.10;;;11.80;99.90;;;;;;5082425;28;20029;-53
2022/11/03 00:26:06;;;;;;;222.43;50.17;;;12.00;99.90;;;;;;5047933;28;20041;-53
2022/11/03 00:28:32;;;;;;;158.23;44.70;;;12.10;99.90;;;;;;5069653;28;20041;-52
2022/11/03 00:31:01;;;;;;;254.65;42.38;;;12.20;99.90;;;;;;5073494;28;20368;-53
2022/11/03 00:33:30;;;;;;;300.20;41.63;;;;;;;;;;5067600;28;20060;-53
2022/11/03 00:35:57;;;;;;;275.30;45.65;;;;;;;;;;5074379;28;20113;-53
2022/11/03 00:38:23;;;;;;;308.50;43.50;;;11.60;99.90;;;;;;5074734;28;20024;-53
2022/11/03 00:40:56;;;;;;;370.70;45.85;;;11.80;99.90;;;;;;5084623;28;20480;-52
2022/11/03 00:43:24;;;;;;;366.85;45.35;;;11.70;99.90;;;;;;5054927;28;20033;-54
2022/11/03 00:45:50;;;;;;;342.23;41.40;;;11.60;99.90;;;;;;5054674;28;20037;-52
2022/11/03 00:48:34;;;;;;;263.35;36.28;;;11.40;99.90;;;;;;5050867;28;20044;-52
2022/11/03 00:51:10;;;;;;;247.45;29.95;;;11.40;99.90;;;;;;5052866;28;20166;-53
2022/11/03 00:53:43;;;;;;;275.55;33.47;;;11.10;99.90;;;;;;5058651;28;20052;-51
2022/11/03 00:56:17;;;;;;;129.07;22.90;;;11.10;99.90;;;;;;5052089;28;20059;-51
2022/11/03 00:58:43;;;;;;;70.95;18.15;;;11.00;99.90;;;;;;5057501;28;20048;-52
2022/11/03 01:01:20;;;;;;;215.63;29.98;;;10.80;99.90;;;;;;5061210;28;20387;-52
2022/11/03 01:06:49;;;;;;;284.33;40.70;;;10.70;99.90;;;;;;5050579;28;20032;-52
2022/11/03 01:09:18;;;;;;;352.70;44.88;;;10.90;99.90;;;;;;5055409;28;20045;-51
2022/11/03 01:11:56;;;;;;;356.58;47.20;;;10.90;99.90;;;;;;5057973;28;20046;-51
2022/11/03 01:14:23;;;;;;;323.17;45.47;;;10.90;99.90;;;;;;5064756;28;20071;-51
2022/11/03 01:16:49;;;;;;;338.77;46.67;;;11.10;99.90;;;;;;5076334;28;20074;-52
2022/11/03 01:19:15;;;;;;;355.30;45.17;;;11.10;99.90;;;;;;5066314;28;20437;-51
2022/11/03 01:21:42;;;;;;;290.75;38.67;;;11.00;99.90;;;;;;5023910;28;20395;-52
2022/11/03 01:24:08;;;;;;;303.92;39.92;;;11.00;99.90;;;;;;5081335;28;20028;-52
2022/11/03 01:26:33;;;;;;;125.57;22.88;;;10.90;99.90;;;;;;5079159;28;20098;-52
2022/11/03 01:28:59;;;;;;;130.52;21.20;;;10.80;99.90;;;;;;5081339;28;20028;-52
2022/11/03 01:31:26;;;;;;;219.98;30.38;;;10.70;99.90;;;;;;5083050;28;20028;-52
2022/11/03 01:33:54;;;;;;;329.70;44.03;;;10.70;99.90;;;;;;5058742;28;20554;-53
2022/11/03 01:36:20;;;;;;;329.30;44.10;;;10.80;99.90;;;;;;5065451;28;20036;-53
2022/11/03 01:38:46;;;;;;;370.92;43.08;;;10.70;99.90;;;;;;5080190;28;20487;-53
2022/11/03 01:41:21;;;;;;;409.63;53.08;;;10.80;99.90;;;;;;5080047;28;20359;-52
2022/11/03 01:43:50;;;;;;;362.08;54.22;;;10.80;99.90;;;;;;5085256;28;20020;-52
2022/11/03 01:46:19;;;;;;;213.63;32.60;;;10.90;99.90;;;;;;5083801;28;20036;-52
2022/11/03 01:49:13;;;;;;;342.73;47.55;;;10.70;99.90;;;;;;5081815;28;20024;-52
2022/11/03 01:51:42;;;;;;;285.92;38.55;;;10.80;99.90;;;;;;5072624;28;20063;-52
2022/11/03 01:54:11;;;;;;;279.67;35.55;;;10.70;99.90;;;;;;5089346;28;20040;-52
2022/11/03 01:56:42;;;;;;;123.95;23.90;;;10.60;99.90;;;;;;5081750;28;20032;-51
2022/11/03 01:59:09;;;;;;;366.73;47.78;;;10.50;99.90;;;;;;5061401;28;20186;-51
2022/11/03 02:01:35;;;;;;;303.95;44.47;;;10.50;99.90;;;;;;5074960;28;20028;-52
2022/11/03 02:04:07;;;;;;;354.88;56.58;;;10.60;99.90;;;;;;5077818;28;20044;-53
2022/11/03 02:06:35;;;;;;;355.58;52.13;;;10.60;99.90;;;;;;5073102;28;20380;-53
2022/11/03 02:09:06;;;;;;;357.75;52.88;;;10.70;99.90;;;;;;5078164;28;20033;-53
2022/11/03 02:14:18;;;;;;;267.92;44.53;;;11.00;99.90;;;;;;5082759;28;20702;-51
2022/11/03 02:16:54;;;;;;;336.27;48.45;;;10.90;99.90;;;;;;5071905;28;20025;-53
2022/11/03 02:19:23;;;;;;;281.70;41.00;;;10.90;99.90;;;;;;5081445;28;20067;-51
2022/11/03 02:22:05;;;;;;;305.73;44.85;;;10.90;99.90;;;;;;5075448;28;20036;-51
2022/11/03 02:24:46;;;;;;;268.67;42.80;;;10.80;99.90;;;;;;5080947;28;20091;-51
2022/11/03 02:27:12;;;;;;;281.05;42.78;;;10.80;99.90;;;;;;5081276;28;20047;-52
2022/11/03 02:29:38;;;;;;;266.45;39.17;;;10.80;99.90;;;;;;5078072;28;20028;-52
2022/11/03 02:32:10;;;;;;;257.73;43.78;;;10.80;99.90;;;;;;5058153;28;20048;-52
2022/11/03 02:34:51;;;;;;;241.02;40.00;;;10.90;99.90;;;;;;5081713;28;20063;-52
2022/11/03 02:37:22;;;;;;;340.83;47.17;;;10.90;99.90;;;;;;5077103;28;20036;-55
2022/11/03 02:39:58;;;;;;;372.55;54.53;;;10.90;99.90;;;;;;5082589;28;20025;-53
2022/11/03 02:42:25;;;;;;;327.88;46.75;;;10.90;99.90;;;;;;5078070;28;20023;-51
2022/11/03 02:44:52;;;;;;;328.08;47.17;;;10.80;99.90;;;;;;5082182;28;20126;-52
2022/11/03 02:47:19;;;;;;;306.92;47.13;;;10.90;99.90;;;;;;5070237;28;20024;-52
2022/11/03 02:49:52;;;;;;;277.80;48.80;;;10.90;99.90;;;;;;5081623;28;20070;-51
2022/11/03 02:52:51;;;;;;;373.08;52.88;;;11.00;99.90;;;;;;5077736;28;20537;-53
2022/11/03 02:55:19;;;;;;;311.08;50.85;;;11.10;99.90;;;;;;5052134;28;20072;-51
2022/11/03 02:57:59;;;;;;;251.88;47.67;;;;;;;;;;5042981;28;20055;-52
2022/11/03 03:00:28;;;;;;;312.90;45.67;;;11.30;99.90;;;;;;5042791;28;20060;-51
2022/11/03 03:02:58;;;;;;;288.48;44.50;;;11.10;99.90;;;;;;5043250;28;20029;-50
2022/11/03 03:05:28;;;;;;;300.40;47.55;;;11.00;99.90;;;;;;5017320;28;20598;-53
2022/11/03 03:07:59;;;;;;;300.48;48.35;;;10.90;99.90;;;;;;5048413;28;20044;-52
2022/11/03 03:10:32;;;;;;;301.95;49.25;;;10.90;99.90;;;;;;5047386;28;20075;-51
2022/11/03 03:12:59;;;;;;;305.70;45.78;;;11.10;99.90;;;;;;5049157;28;20091;-52
2022/11/03 03:15:39;;;;;;;247.93;46.97;;;11.00;99.90;;;;;;5044159;28;20103;-51
2022/11/03 03:18:39;;;;;;;223.93;43.15;;;11.10;99.90;;;;;;5048591;28;20048;-52
2022/11/03 03:21:32;;;;;;;300.90;45.47;;;11.20;99.90;;;;;;5050333;28;20029;-51
2022/11/03 03:24:26;;;;;;;337.20;52.15;;;11.30;99.90;;;;;;5043384;28;20056;-50
2022/11/03 03:26:57;;;;;;;364.85;50.88;;;11.40;99.90;;;;;;5050785;28;20029;-51
2022/11/03 03:29:34;;;;;;;322.08;49.53;;;11.30;99.90;;;;;;5048003;28;20039;-52
2022/11/03 03:32:03;;;;;;;238.57;45.45;;;;;;;;;;5068192;28;20043;-51
2022/11/03 03:34:30;;;;;;;240.60;43.97;;;;;;;;;;5069016;28;20044;-51
2022/11/03 03:36:58;;;;;;;359.20;52.38;;;11.40;99.90;;;;;;5084777;28;20038;-50
2022/11/03 03:39:29;;;;;;;386.60;53.97;;;11.70;99.90;;;;;;5083184;28;20024;-50
2022/11/03 03:41:57;;;;;;;381.43;51.03;;;;;;;;;;5079178;28;20035;-52
2022/11/03 03:44:23;;;;;;;342.17;48.03;;;11.60;99.90;;;;;;5076449;28;20032;-51
2022/11/03 03:47:00;;;;;;;296.45;43.67;;;11.60;99.90;;;;;;5077554;28;20024;-52
2022/11/03 03:49:25;;;;;;;309.75;49.72;;;11.50;99.90;;;;;;5074898;28;20472;-52
2022/11/03 03:51:51;;;;;;;344.73;55.55;;;11.50;99.90;;;;;;5038897;28;20055;-52
2022/11/03 03:54:17;;;;;;;240.93;44.42;;;11.70;99.90;;;;;;5079166;28;20119;-51
2022/11/03 03:56:46;;;;;;;339.05;55.38;;;11.60;99.90;;;;;;5080970;28;20055;-52
2022/11/03 03:59:12;;;;;;;295.02;44.13;;;11.60;99.90;;;;;;5084072;28;20106;-51
2022/11/03 04:01:38;;;;;;;300.17;42.55;;;11.60;99.90;;;;;;5019673;28;20028;-53
2022/11/03 04:04:03;;;;;;;385.98;50.38;;;11.60;99.90;;;;;;5075773;28;20055;-53
2022/11/03 04:06:29;;;;;;;286.63;42.42;;;11.50;99.90;;;;;;5054287;28;20045;-52
2022/11/03 04:08:55;;;;;;;270.08;43.95;;;11.60;99.90;;;;;;5074443;28;20028;-52
2022/11/03 04:22:31;;;;;;;304.10;44.08;;;11.60;99.90;;;;;;5075372;28;20079;-53
2022/11/03 04:24:57;;;;;;;352.65;43.60;;;11.30;99.90;;;;;;5080978;28;20069;-52
2022/11/03 04:27:37;;;;;;;341.17;45.03;;;11.30;99.90;;;;;;5075119;28;20037;-50
2022/11/03 04:30:15;;;;;;;286.13;38.95;;;11.40;99.90;;;;;;5047498;28;20403;-53
2022/11/03 04:32:45;;;;;;;322.42;42.85;;;11.20;99.90;;;;;;5044074;28;20040;-52
2022/11/03 04:35:23;;;;;;;223.43;34.42;;;11.30;99.90;;;;;;5070972;28;20082;-51
2022/11/03 04:37:59;;;;;;;281.05;36.80;;;11.30;99.90;;;;;;5082639;28;20086;-53
2022/11/03 04:40:26;;;;;;;265.70;40.97;;;11.20;99.90;;;;;;5079182;28;20413;-53
2022/11/03 04:42:52;;;;;;;180.73;39.38;;;11.40;99.90;;;;;;5076731;28;20078;-51
2022/11/03 04:45:29;;;;;;;221.45;41.70;;;11.60;99.90;;;;;;5076794;28;20024;-51
2022/11/03 04:47:57;;;;;;;147.77;37.60;;;11.80;99.90;;;;;;5085548;28;20032;-53
2022/11/03 04:50:23;;;;;;;402.33;44.90;;;12.00;99.90;;;;;;5075209;28;20039;-52
2022/11/03 04:52:57;;;;;;;281.80;40.60;;;11.80;99.90;;;;;;5079154;28;20517;-53
2022/11/03 04:55:23;;;;;;;302.92;40.40;;;11.60;99.90;;;;;;5074704;28;20028;-51
2022/11/03 04:57:55;;;;;;;393.08;49.70;;;11.40;99.90;;;;;;5086718;28;20032;-51
2022/11/03 05:00:21;;;;;;;270.83;33.97;;;11.40;99.90;;;;;;5081953;28;20039;-51
2022/11/03 05:02:49;;;;;;;220.68;35.40;;;11.10;99.90;;;;;;5079203;28;20016;-51
2022/11/03 05:05:23;;;;;;;243.23;38.45;;;10.90;99.90;;;;;;5075445;28;20048;-51
2022/11/03 05:07:54;;;;;;;292.27;39.42;;;11.10;99.90;;;;;;5084971;28;20033;-52
2022/11/03 05:10:28;;;;;;;274.67;33.72;;;11.30;99.90;;;;;;5083574;28;20498;-52
2022/11/03 05:12:56;;;;;;;347.17;41.03;;;11.10;99.90;;;;;;5034023;28;20039;-51
2022/11/03 05:15:45;;;;;;;209.10;29.88;;;11.20;99.90;;;;;;5044307;28;20083;-52
2022/11/03 05:18:23;;;;;;;199.40;35.70;;;11.00;99.90;;;;;;5000743;28;20137;-53
2022/11/03 05:20:53;;;;;;;172.38;25.50;;;11.20;99.90;;;;;;5012814;28;20057;-54
2022/11/03 05:23:20;;;;;;;203.98;25.42;;;10.90;99.90;;;;;;5005389;28;20037;-53
2022/11/03 05:25:52;;;;;;;35.47;12.18;;;10.50;99.90;;;;;;5001825;28;20038;-53
2022/11/03 05:28:19;;;;;;;;;;;;;;;;;;5005210;28;20021;-52
2022/11/03 05:30:46;;;;;;;81.10;14.98;;;10.00;99.90;;;;;;5007503;28;19909;-53
2022/11/03 05:33:22;;;;;;;140.90;22.58;;;9.90;99.90;;;;;;5007825;28;20086;-56
2022/11/03 05:35:48;;;;;;;211.70;28.15;;;9.90;99.90;;;;;;5004460;28;20116;-51
2022/11/03 05:38:17;;;;;;;206.10;30.65;;;10.10;99.90;;;;;;5009689;28;21256;-51
2022/11/03 05:40:43;;;;;;;240.38;32.95;;;10.20;99.90;;;;;;5008001;28;20042;-52
2022/11/03 05:43:13;;;;;;;207.98;26.70;;;10.20;99.90;;;;;;4960510;28;20495;-51
2022/11/03 05:45:39;;;;;;;80.32;17.08;;;10.10;99.90;;;;;;4961640;28;20034;-51
2022/11/03 05:48:33;;;;;;;79.97;14.55;;;10.10;99.90;;;;;;5010012;28;20045;-52
2022/11/03 05:51:01;;;;;;;182.13;29.00;;;9.90;99.90;;;;;;4973268;28;20053;-53
2022/11/03 05:53:37;;;;;;;194.70;28.85;;;10.10;99.90;;;;;;4973194;28;20486;-52
2022/11/03 05:56:04;;;;;;;95.10;18.92;;;10.10;99.90;;;;;;5014197;28;20042;-52
2022/11/03 05:58:38;;;;;;;127.55;22.08;;;9.60;99.90;;;;;;5009865;28;20046;-52
2022/11/03 06:01:12;;;;;;;14.25;7.70;;;9.80;99.90;;;;;;5018691;28;20030;-52
2022/11/03 06:03:38;;;;;;;38.17;10.30;;;;;;;;;;5016729;28;20050;-52
2022/11/03 06:06:19;;;;;;;134.98;23.67;;;9.40;99.90;;;;;;5017754;28;20125;-52
2022/11/03 06:08:46;;;;;;;123.13;23.05;;;9.50;99.90;;;;;;5016125;28;20042;-52
2022/11/03 06:11:31;;;;;;;182.43;28.95;;;9.50;99.90;;;;;;5013122;28;20180;-51
2022/11/03 06:13:58;;;;;;;122.55;25.15;;;9.60;99.90;;;;;;5015318;28;20108;-51
2022/11/03 06:16:40;;;;;;;80.25;16.58;;;9.60;99.90;;;;;;5011485;28;20473;-52
2022/11/03 06:19:18;;;;;;;11.57;8.47;;;9.50;99.90;;;;;;5013891;28;20034;-52
2022/11/03 06:21:45;;;;;;;69.40;15.48;;;9.20;99.90;;;;;;5015769;28;20521;-52
2022/11/03 06:24:13;;;;;;;113.82;23.50;;;9.20;99.90;;;;;;5023460;28;20030;-52
2022/11/03 06:26:40;;;;;;;41.80;20.55;;;9.30;99.90;;;;;;5019962;28;20041;-52
2022/11/03 06:29:20;;;;;;;84.03;19.40;;;9.20;99.90;;;;;;5068857;28;20511;-54
2022/11/03 06:31:49;;;;;;;165.20;27.70;;;9.20;99.90;;;;;;5065360;28;20037;-52
2022/11/03 06:34:40;;;;;;;73.57;17.38;;;9.40;99.90;;;;;;5071461;28;20044;-52
2022/11/03 06:37:33;;;;;;;113.28;23.52;;;;;;;;;;5025674;28;20037;-52
2022/11/03 06:40:07;;;;;;;105.72;29.48;;;9.70;99.90;;;;;;5025982;28;20124;-52
2022/11/03 06:42:33;;;;;;;149.38;29.02;;;9.60;99.90;;;;;;5033828;28;20127;-58
2022/11/03 06:45:09;;;;;;;154.43;30.38;;;9.70;99.90;;;;;;5027533;28;20088;-52
2022/11/03 06:47:34;;;;;;;140.55;30.15;;;9.70;99.90;;;;;;5032160;28;20555;-51
2022/11/03 06:50:01;;;;;;;102.47;25.40;;;9.70;99.90;;;;;;5028906;28;20044;-51
2022/11/03 06:52:31;;;;;;;46.05;14.63;;;9.80;99.90;;;;;;5028033;28;20057;-53
2022/11/03 06:55:12;;;;;;;81.75;23.38;;;9.70;99.90;;;;;;5026604;28;20051;-51
2022/11/03 06:57:40;;;;;;;82.85;27.35;;;9.90;99.90;;;;;;5028352;28;20030;-50
2022/11/03 07:00:24;;;;;;;67.63;22.98;;;10.10;99.90;;;;;;5027714;28;20473;-48
2022/11/03 07:03:07;;;;;;;61.67;20.70;;;10.30;99.90;;;;;;5030521;28;20037;-52
2022/11/03 07:05:33;;;;;;;63.15;26.45;;;10.30;99.90;;;;;;4970599;28;20116;-52
2022/11/03 07:08:01;;;;;;;68.47;18.55;;;;;;;;;;4939313;28;20043;-52
2022/11/03 07:10:32;;;;;;;77.90;23.17;;;10.50;99.90;;;;;;4957830;28;20042;-53
2022/11/03 07:13:15;;;;;;;50.70;23.63;;;10.60;99.90;;;;;;4965898;28;20027;-52
2022/11/03 07:15:42;;;;;;;62.83;22.95;;;10.70;99.90;;;;;;5026238;28;20125;-53
2022/11/03 07:18:24;;;;;;;71.95;24.30;;;10.70;99.90;;;;;;4966836;28;20130;-49
2022/11/03 07:20:52;;;;;;;75.03;21.42;;;10.80;99.90;;;;;;4932291;29;20039;-49
2022/11/03 07:23:28;;;;;;;52.17;19.90;;;10.70;99.90;;;;;;4931914;29;20023;-51
2022/11/03 07:25:58;;;;;;;55.28;27.17;;;10.50;99.90;;;;;;4931916;29;20048;-50
2022/11/03 07:28:31;;;;;;;46.25;24.15;;;10.90;99.90;;;;;;4931076;29;20035;-48
2022/11/03 07:30:59;;;;;;;39.67;24.13;;;;;;;;;;4932704;29;20428;-51
2022/11/03 07:33:27;;;;;;;62.38;18.35;;;;;;;;;;4931466;29;20035;-51
2022/11/03 07:35:56;;;;;;;62.78;24.80;;;11.20;99.90;;;;;;4946935;28;20037;-49
2022/11/03 07:38:25;;;;;;;26.20;11.35;;;11.10;99.90;;;;;;4989592;28;20085;-49
2022/11/03 07:40:52;;;;;;;41.03;18.08;;;10.70;99.90;;;;;;4990051;28;20558;-50
2022/11/03 07:43:21;;;;;;;54.70;27.10;;;10.80;99.90;;;;;;4955704;28;20039;-48
2022/11/03 07:45:50;;;;;;;43.80;27.27;;;11.10;99.90;;;;;;4980767;28;20072;-49
2022/11/03 07:48:23;;;;;;;41.53;18.05;;;11.90;99.90;;;;;;4973087;28;20545;-52
2022/11/03 07:50:52;;;;;;;53.05;23.85;;;11.70;99.90;;;;;;4975080;28;20423;-50
2022/11/03 07:53:28;;;;;;;71.25;26.08;;;11.50;99.90;;;;;;5031339;28;20116;-49
2022/11/03 07:55:55;;;;;;;57.47;26.05;;;11.50;99.90;;;;;;5058989;28;20051;-51
2022/11/03 07:58:37;;;;;;;68.63;25.92;;;11.60;99.90;;;;;;5066768;28;20039;-50
2022/11/03 08:01:27;;;;;;;67.22;27.70;;;11.40;99.90;;;;;;5068021;28;20055;-50
2022/11/03 08:04:00;;;;;;;67.75;32.17;;;11.40;99.90;;;;;;5056278;28;20084;-54
2022/11/03 08:06:26;;;;;;;57.13;32.20;;;11.60;99.90;;;;;;5038242;28;20062;-53
2022/11/03 08:08:52;;;;;;;73.55;30.67;;;11.80;99.90;;;;;;5047962;28;20062;-55
2022/11/03 08:11:18;;;;;;;56.53;29.98;;;11.80;99.90;;;;;;5044083;28;20045;-50
2022/11/03 08:13:43;;;;;;;68.93;27.75;;;12.10;99.90;;;;;;5031680;28;20037;-53
2022/11/03 08:16:09;;;;;;;57.35;30.38;;;12.20;99.90;;;;;;5043892;28;20108;-54
2022/11/03 08:18:36;;;;;;;57.95;32.25;;;;;;;;;;5039086;28;20029;-49
2022/11/03 08:21:01;;;;;;;66.57;35.42;;;13.00;99.90;;;;;;5035174;28;20515;-54
2022/11/03 08:23:27;;;;;;;83.15;31.80;;;12.70;99.90;;;;;;5028572;28;20045;-53
2022/11/03 08:25:53;;;;;;;74.65;30.58;;;12.40;99.90;;;;;;5034212;28;20434;-51
2022/11/03 08:28:19;;;;;;;69.20;33.67;;;12.40;99.90;;;;;;5037559;28;20025;-53
2022/11/03 08:30:44;;;;;;;59.58;30.00;;;12.50;99.90;;;;;;5041158;28;20029;-53
2022/11/03 08:33:10;;;;;;;65.07;30.83;;;12.50;99.90;;;;;;5037652;28;20124;-55
2022/11/03 08:35:36;;;;;;;61.40;32.60;;;12.30;99.90;;;;;;5035479;28;20140;-59
2022/11/03 08:38:02;;;;;;;73.28;29.50;;;12.40;99.90;;;;;;5046330;28;20111;-56
2022/11/03 08:40:27;;;;;;;62.97;32.70;;;12.60;99.90;;;;;;5031093;28;20026;-49
2022/11/03 08:42:53;;;;;;;58.92;32.72;;;12.70;99.90;;;;;;5038432;28;20033;-56
2022/11/03 08:45:19;;;;;;;67.65;30.35;;;12.90;99.90;;;;;;5037149;28;20033;-52
2022/11/03 08:47:45;;;;;;;60.83;32.63;;;;;;;;;;5039175;28;20029;-52
2022/11/03 08:50:11;;;;;;;67.63;30.58;;;;;;;;;;5038315;28;20172;-57
2022/11/03 08:52:37;;;;;;;66.85;30.45;;;;;;;;;;5026560;28;20038;-52
2022/11/03 08:55:03;;;;;;;60.45;33.55;;;;;;;;;;5036195;28;20126;-59
2022/11/03 08:57:30;;;;;;;72.75;34.90;;;;;;;;;;5008344;28;20126;-54
2022/11/03 08:59:56;;;;;;;69.45;35.30;;;;;;;;;;5045852;28;20021;-55
2022/11/03 09:02:22;;;;;;;63.03;33.63;;;;;;;;;;5036426;28;20045;-53
2022/11/03 09:04:48;;;;;;;68.38;34.40;;;;;;;;;;5063513;28;20083;-55
2022/11/03 09:07:14;;;;;;;67.40;36.25;;;14.00;99.90;;;;;;5073010;28;20025;-56
2022/11/03 09:09:40;;;;;;;78.80;36.67;;;;;;;;;;5071927;28;20364;-58
2022/11/03 09:12:06;;;;;;;75.50;36.28;;;;;;;;;;5073231;28;20114;-57
2022/11/03 09:14:32;;;;;;;97.28;48.97;;;14.00;99.90;;;;;;5080118;28;20040;-56
2022/11/03 09:16:58;;;;;;;75.85;40.45;;;;;;;;;;5073339;28;20069;-55
2022/11/03 09:19:24;;;;;;;77.10;36.20;;;14.30;99.90;;;;;;5062678;28;20063;-57
2022/11/03 09:21:51;;;;;;;92.10;42.75;;;;;;;;;;5080114;28;20387;-54
2022/11/03 09:24:16;;;;;;;89.75;38.05;;;13.80;99.90;;;;;;5085044;28;20075;-55
2022/11/03 09:26:43;;;;;;;95.20;43.55;;;13.70;99.90;;;;;;5087257;28;20044;-54
2022/11/03 09:29:08;;;;;;;93.72;43.20;;;13.80;99.90;;;;;;5063127;28;20040;-59
2022/11/03 09:31:34;;;;;;;91.30;39.97;;;13.70;99.90;;;;;;5080124;28;20025;-49
2022/11/03 09:34:00;;;;;;;89.30;42.53;;;13.70;99.90;;;;;;5064041;28;20055;-57
2022/11/03 09:36:25;;;;;;;97.53;44.03;;;13.70;99.90;;;;;;5083015;28;20036;-54
2022/11/03 09:38:51;;;;;;;85.45;41.20;;;14.10;99.90;;;;;;5078688;28;20024;-57
2022/11/03 09:41:17;;;;;;;98.57;43.97;;;;;;;;;;5084905;28;20035;-54
2022/11/03 09:43:44;;;;;;;97.00;43.63;;;13.70;99.90;;;;;;5084220;28;20034;-53
2022/11/03 09:46:11;;;;;;;93.30;43.40;;;;;;;;;;5061162;28;20045;-54
2022/11/03 09:48:37;;;;;;;106.72;43.13;;;;;;;;;;5079874;28;20024;-53
2022/11/03 09:51:03;;;;;;;96.20;43.08;;;;;;;;;;5079573;28;20432;-59
2022/11/03 09:53:30;;;;;;;94.30;44.65;;;;;;;;;;5082600;28;20032;-52
2022/11/03 09:55:56;;;;;;;105.65;45.85;;;;;;;;;;5078451;28;20107;-53
2022/11/03 09:58:22;;;;;;;98.53;44.38;;;14.20;99.90;;;;;;5078717;28;20070;-57
2022/11/03 10:00:48;;;;;;;96.45;43.42;;;14.20;99.90;;;;;;5079132;28;20032;-55
2022/11/03 10:03:15;;;;;;;99.65;45.50;;;;;;;;;;5080984;28;20020;-57
2022/11/03 10:05:43;;;;;;;103.53;46.13;;;14.40;99.90;;;;;;5082351;28;20020;-52
2022/11/03 10:08:23;;;;;;;105.63;48.38;;;;;;;;;;5071229;28;20058;-54
2022/11/03 10:10:50;;;;;;;110.90;50.20;;;;;;;;;;5085570;28;20435;-57
2022/11/03 10:13:41;;;;;;;105.38;44.95;;;14.60;99.90;;;;;;5074741;28;20032;-58
2022/11/03 10:16:14;;;;;;;104.97;48.90;;;14.50;99.90;;;;;;5075255;28;20086;-57
2022/11/03 10:18:39;;;;;;;99.32;47.53;;;14.50;99.90;;;;;;5063251;28;20052;-54
2022/11/03 10:21:15;;;;;;;112.38;49.92;;;14.70;99.90;;;;;;5064115;28;20089;-55
2022/11/03 10:23:41;;;;;;;121.55;52.45;;;;;;;;;;5076203;28;20043;-56
2022/11/03 10:26:10;;;;;;;120.53;51.22;;;14.70;99.90;;;;;;5086187;28;20039;-55
2022/11/03 10:28:37;;;;;;;114.85;50.80;;;;;;;;;;5054755;28;20047;-54
2022/11/03 10:31:08;;;;;;;131.75;55.08;;;;;;;;;;5077803;28;20036;-53
2022/11/03 10:33:36;;;;;;;126.60;55.47;;;;;;;;;;5074713;28;20032;-54
2022/11/03 10:36:29;;;;;;;118.38;52.83;;;14.60;99.90;;;;;;5061223;28;20049;-57
2022/11/03 10:38:55;;;;;;;125.03;53.90;;;14.60;99.90;;;;;;5011908;28;20788;-55
2022/11/03 10:41:27;;;;;;;123.63;51.40;;;14.70;99.90;;;;;;5009187;28;20132;-53
2022/11/03 10:44:16;;;;;;;121.18;53.03;;;14.70;99.90;;;;;;5029444;28;20037;-52
2022/11/03 10:46:58;;;;;;;127.82;50.97;;;14.90;99.90;;;;;;5034148;28;20075;-53
2022/11/03 10:49:24;;;;;;;124.70;50.67;;;15.00;99.90;;;;;;5025777;28;20073;-54
2022/11/03 10:51:58;;;;;;;132.18;54.25;;;14.90;99.90;;;;;;5022826;28;20034;-57
2022/11/03 10:54:24;;;;;;;126.43;52.40;;;14.80;99.90;;;;;;5029109;28;20188;-59
2022/11/03 10:56:51;;;;;;;116.95;49.88;;;14.80;99.90;;;;;;5030776;28;20056;-55
2022/11/03 10:59:23;;;;;;;132.90;53.40;;;14.70;99.90;;;;;;5027639;28;20030;-58
2022/11/03 11:01:49;;;;;;;129.48;53.38;;;14.40;99.90;;;;;;5030793;28;20037;-53
2022/11/03 11:04:19;;;;;;;126.30;52.10;;;14.50;99.90;;;;;;5034790;28;20067;-55
2022/11/03 11:06:45;;;;;;;122.18;51.55;;;14.50;99.90;;;;;;5028188;28;20477;-54
2022/11/03 11:09:14;;;;;;;115.20;45.97;;;14.50;99.90;;;;;;5019388;28;20436;-57
2022/11/03 11:12:02;;;;;;;122.18;49.83;;;14.30;99.90;;;;;;5036589;28;20555;-52
2022/11/03 11:14:27;;;;;;;111.28;46.83;;;14.30;99.90;;;;;;5010781;28;20053;-53
2022/11/03 11:16:57;;;;;;;118.00;46.80;;;14.30;99.90;;;;;;5065688;28;20051;-54
2022/11/03 11:19:24;;;;;;;115.00;46.03;;;14.40;99.90;;;;;;5075479;28;20024;-54
2022/11/03 11:21:53;;;;;;;105.25;40.88;;;14.40;99.90;;;;;;5058645;28;20456;-51
2022/11/03 11:24:43;;;;;;;108.78;45.05;;;14.20;99.90;;;;;;5065222;28;20114;-55
2022/11/03 11:27:35;;;;;;;100.50;39.88;;;14.10;99.90;;;;;;5063556;28;20035;-56
2022/11/03 11:30:26;;;;;;;119.22;48.28;;;14.20;99.90;;;;;;5036158;28;20468;-53
2022/11/03 11:32:58;;;;;;;117.25;45.72;;;14.50;99.90;;;;;;5061836;28;20028;-56
2022/11/03 11:35:25;;;;;;;111.60;46.88;;;14.60;99.90;;;;;;5077353;28;20047;-56
2022/11/03 11:37:51;;;;;;;113.95;46.85;;;14.60;99.90;;;;;;5054780;28;20036;-56
2022/11/03 11:40:23;;;;;;;115.40;47.40;;;14.60;99.90;;;;;;5074755;28;20024;-56
2022/11/03 11:43:09;;;;;;;126.28;51.22;;;14.70;99.90;;;;;;5076803;28;20436;-54
2022/11/03 11:46:12;;;;;;;108.90;43.70;;;14.80;99.90;;;;;;5074821;28;20048;-54
2022/11/03 11:48:38;;;;;;;109.90;46.83;;;;;;;;;;5072212;28;20032;-56
2022/11/03 11:51:10;;;;;;;113.57;49.13;;;14.60;99.90;;;;;;5072625;28;20476;-53
2022/11/03 11:53:42;;;;;;;107.53;46.42;;;14.80;99.90;;;;;;5074657;28;20115;-55
2022/11/03 11:56:15;;;;;;;118.90;51.65;;;14.70;99.90;;;;;;5073014;28;20039;-51
2022/11/03 11:58:46;;;;;;;107.95;46.97;;;14.80;99.90;;;;;;5074933;28;20029;-56
2022/11/03 12:01:33;;;;;;;104.68;46.10;;;14.70;99.90;;;;;;5077602;28;20030;-52
2022/11/03 12:04:18;;;;;;;121.47;49.88;;;14.70;99.90;;;;;;5071870;28;20063;-54
2022/11/03 12:06:44;;;;;;;131.30;52.40;;;14.60;99.90;;;;;;5062081;28;20048;-54
2022/11/03 12:09:22;;;;;;;127.05;52.20;;;14.70;99.90;;;;;;5071018;28;20494;-53
2022/11/03 12:11:50;;;;;;;139.05;55.25;;;;;;;;;;5078099;28;20111;-55
2022/11/03 12:14:31;;;;;;;120.93;50.03;;;14.90;99.90;;;;;;5077774;28;20071;-50
2022/11/03 12:17:18;;;;;;;111.82;45.38;;;15.00;99.90;;;;;;5082960;28;20075;-50
2022/11/03 12:19:46;;;;;;;136.02;56.75;;;15.10;99.90;;;;;;5064286;28;20036;-51
2022/11/03 12:22:23;;;;;;;130.38;53.28;;;15.10;99.90;;;;;;5082632;28;20034;-50
2022/11/03 12:25:00;;;;;;;109.55;46.92;;;15.00;99.90;;;;;;5054230;28;20082;-50
2022/11/03 12:27:25;;;;;;;117.30;53.28;;;14.90;99.90;;;;;;5046809;28;20052;-50
2022/11/03 12:29:53;;;;;;;120.80;52.95;;;14.90;99.90;;;;;;5085143;28;20036;-50
2022/11/03 12:32:19;;;;;;;114.25;51.90;;;15.10;99.90;;;;;;5077952;28;20048;-51
2022/11/03 12:34:45;;;;;;;106.80;49.78;;;15.30;99.90;;;;;;5082295;28;20067;-51
2022/11/03 12:37:11;;;;;;;110.07;52.50;;;15.50;99.90;;;;;;5071142;28;20506;-50
2022/11/03 12:39:37;;;;;;;95.32;45.97;;;15.40;99.90;;;;;;5079495;28;20057;-50
2022/11/03 12:42:04;;;;;;;86.60;45.03;;;15.40;99.90;;;;;;5079995;28;20077;-50
2022/11/03 12:44:31;;;;;;;90.57;43.42;;;15.30;99.90;;;;;;5069506;28;20020;-54
2022/11/03 12:46:57;;;;;;;83.53;43.03;;;15.10;99.90;;;;;;5071663;28;20032;-51
2022/11/03 12:49:23;;;;;;;80.95;39.22;;;;;;;;;;5069383;28;20033;-57
2022/11/03 12:51:49;;;;;;;78.40;42.47;;;14.90;99.90;;;;;;5033658;28;20047;-49
2022/11/03 12:54:14;;;;;;;90.78;45.88;;;14.90;99.90;;;;;;5064530;28;20040;-48
2022/11/03 12:56:40;;;;;;;76.78;40.75;;;15.00;99.90;;;;;;5068476;28;20067;-50
2022/11/03 12:59:06;;;;;;;79.40;41.58;;;14.90;99.90;;;;;;5054372;28;20405;-50
2022/11/03 13:01:32;;;;;;;72.38;40.10;;;14.80;99.90;;;;;;5053873;28;20480;-49
2022/11/03 13:03:58;;;;;;;74.93;40.15;;;14.80;99.90;;;;;;5062070;28;20063;-49
2022/11/03 13:06:25;;;;;;;80.28;39.97;;;14.90;99.90;;;;;;5082350;28;20044;-48
2022/11/03 13:08:51;;;;;;;76.47;39.88;;;14.80;99.90;;;;;;5084698;28;20027;-52
2022/11/03 13:14:03;;;;;;;81.65;44.92;;;14.80;99.90;;;;;;5075693;28;20042;-49